Medallion — V7KM6 — position and weather

sailwx.info

Track history (hours):
 
Tides and Currents Weather Stations Pressure Air Temp Water Temp Dewpoint Dewpoint Depression Visibility Wind Speed Wind Dir Waves Ship Positions

Medallion

Last reported at 2015-Sep-01 11:34 UTC. Time now 2015-Sep-01 12:15 UTC.
Position N 41°06' W 072°22'.

Length 20 m; draft 7 m.

Type: Pleasure craft. MMSI: 538070246.

Date/timePositionNaut miles runAvg speedWind from/ knotsBaromVisibWave heightAir tempDewpointWater temp
2015-Sep-01 11:34N 41°06' W 072°22'0 0.0
2015-Sep-01 10:34N 41°06' W 072°22'0 0.0
2015-Sep-01 09:34N 41°06' W 072°22'0 0.0
2015-Sep-01 08:34N 41°06' W 072°22'0 0.0
2015-Sep-01 07:34N 41°06' W 072°22'0 0.0
2015-Sep-01 06:34N 41°06' W 072°22'0 0.0
2015-Sep-01 05:34N 41°06' W 072°22'0 0.0
2015-Sep-01 04:34N 41°06' W 072°22'0 0.0
2015-Sep-01 03:34N 41°06' W 072°22'0 0.0
2015-Sep-01 02:34N 41°06' W 072°22'0 0.0
2015-Sep-01 01:34N 41°06' W 072°22'0 0.0
2015-Sep-01 00:34N 41°06' W 072°22'0 0.0
2015-Aug-31 23:34N 41°06' W 072°22'0 0.0
2015-Aug-31 22:34N 41°06' W 072°22'0 0.0
2015-Aug-31 21:34N 41°06' W 072°22'0 0.0
2015-Aug-31 20:34N 41°06' W 072°22'0 0.0
2015-Aug-31 19:34N 41°06' W 072°22'0 0.0
2015-Aug-31 18:34N 41°06' W 072°22'0 0.0
2015-Aug-31 17:34N 41°06' W 072°22'0 0.0
2015-Aug-31 16:34N 41°06' W 072°22'0 0.0
2015-Aug-31 15:34N 41°06' W 072°22'0 0.0
2015-Aug-31 14:34N 41°06' W 072°22'0 0.0
2015-Aug-31 13:34N 41°06' W 072°22'0 0.0
2015-Aug-31 12:34N 41°06' W 072°22'0 0.0
2015-Aug-31 10:33N 41°06' W 072°22'0 0.0
2015-Aug-31 09:32N 41°06' W 072°22'0 0.0
2015-Aug-31 08:34N 41°06' W 072°22'0 0.0
2015-Aug-31 07:33N 41°06' W 072°22'0 0.0
2015-Aug-31 06:33N 41°06' W 072°22'0 0.0
2015-Aug-31 05:33N 41°06' W 072°22'0 0.0
2015-Aug-31 04:31N 41°06' W 072°22'0 0.0
2015-Aug-31 03:34N 41°06' W 072°22'0 0.0
2015-Aug-31 02:33N 41°06' W 072°22'0 0.0
2015-Aug-31 00:32N 41°06' W 072°22'7 0.2
2015-Aug-29 10:21N 41°00' W 072°17'0 0.0
2015-Aug-29 09:33N 41°00' W 072°17'0 0.0
2015-Aug-29 08:28N 41°00' W 072°17'0 0.0
2015-Aug-28 16:27N 41°00' W 072°17'0 0.0
2015-Aug-28 15:30N 41°00' W 072°17'2 1.6
2015-Aug-28 14:34N 41°02' W 072°18'5 4.6
2015-Aug-28 13:33N 41°06' W 072°21'1 0.5
2015-Aug-28 12:31N 41°06' W 072°22'0 0.0
2015-Aug-28 11:31N 41°06' W 072°22'0 0.0
2015-Aug-28 10:29N 41°06' W 072°22'0 0.0
2015-Aug-28 09:33N 41°06' W 072°22'0 0.0
2015-Aug-28 08:33N 41°06' W 072°22'0 0.0
2015-Aug-28 07:31N 41°06' W 072°22'0 0.0
2015-Aug-28 06:32N 41°06' W 072°22'0 0.0
2015-Aug-28 05:32N 41°06' W 072°22'0 0.0
2015-Aug-28 04:33N 41°06' W 072°22'0 0.0
2015-Aug-28 03:31N 41°06' W 072°22'0 0.0
2015-Aug-28 02:31N 41°06' W 072°22'0 0.0
2015-Aug-28 01:26N 41°06' W 072°22'0 0.0
2015-Aug-28 00:33N 41°06' W 072°22'0 0.0
2015-Aug-27 23:33N 41°06' W 072°22'0 0.0
2015-Aug-27 22:31N 41°06' W 072°22'0 0.0
2015-Aug-27 21:32N 41°06' W 072°22'0 0.0
2015-Aug-27 20:32N 41°06' W 072°22'0 0.0
2015-Aug-27 19:33N 41°06' W 072°22'0 0.0
2015-Aug-27 18:31N 41°06' W 072°22'0 0.0
2015-Aug-27 17:31N 41°06' W 072°22'0 0.0
2015-Aug-27 16:32N 41°06' W 072°22'0 0.0
2015-Aug-27 15:33N 41°06' W 072°22'0 0.0
2015-Aug-27 14:30N 41°06' W 072°22'0 0.0
2015-Aug-27 13:31N 41°06' W 072°22'0 0.0
2015-Aug-27 12:32N 41°06' W 072°22'0 0.0
2015-Aug-27 11:32N 41°06' W 072°22'0 0.0
2015-Aug-27 10:33N 41°06' W 072°22'0 0.0
2015-Aug-27 09:31N 41°06' W 072°22'0 0.0
2015-Aug-27 08:31N 41°06' W 072°22'0 0.0
2015-Aug-27 07:32N 41°06' W 072°22'0 0.0
2015-Aug-27 06:33N 41°06' W 072°22'0 0.0
2015-Aug-27 05:33N 41°06' W 072°22'0 0.0
2015-Aug-27 04:31N 41°06' W 072°22'0 0.0
2015-Aug-27 03:32N 41°06' W 072°22'0 0.0
2015-Aug-27 02:33N 41°06' W 072°22'0 0.0
2015-Aug-27 01:33N 41°06' W 072°22'0 0.0
2015-Aug-27 00:31N 41°06' W 072°22'0 0.0
2015-Aug-26 23:32N 41°06' W 072°22'0 0.0
2015-Aug-26 22:32N 41°06' W 072°22'0 0.0
2015-Aug-26 21:33N 41°06' W 072°22'0 0.0
2015-Aug-26 20:31N 41°06' W 072°22'0 0.0
2015-Aug-26 19:31N 41°06' W 072°22'0 0.0
2015-Aug-26 18:32N 41°06' W 072°22'0 0.0
2015-Aug-26 17:33N 41°06' W 072°22'0 0.0
2015-Aug-26 16:33N 41°06' W 072°22'0 0.0
2015-Aug-26 15:31N 41°06' W 072°22'0 0.0
2015-Aug-26 14:32N 41°06' W 072°22'0 0.0
2015-Aug-26 13:32N 41°06' W 072°22'0 0.0
2015-Aug-26 12:33N 41°06' W 072°22'0 0.0
2015-Aug-26 11:31N 41°06' W 072°22'0 0.0
2015-Aug-26 10:31N 41°06' W 072°22'0 0.0
2015-Aug-26 09:32N 41°06' W 072°22'0 0.0
2015-Aug-26 08:33N 41°06' W 072°22'0 0.0
2015-Aug-26 07:33N 41°06' W 072°22'0 0.0
2015-Aug-26 06:31N 41°06' W 072°22'0 0.0
2015-Aug-26 05:32N 41°06' W 072°22'0 0.0
2015-Aug-26 04:32N 41°06' W 072°22'0 0.0
2015-Aug-26 03:33N 41°06' W 072°22'0 0.0
2015-Aug-26 02:31N 41°06' W 072°22'0 0.0
2015-Aug-26 01:31N 41°06' W 072°22'0 0.0
2015-Aug-26 00:32N 41°06' W 072°22'0 0.0
2015-Aug-25 23:33N 41°06' W 072°22'0 0.0
2015-Aug-25 22:33N 41°06' W 072°22'0 0.0
2015-Aug-25 21:31N 41°06' W 072°22'0 0.0
2015-Aug-25 20:32N 41°06' W 072°22'0 0.0
2015-Aug-25 19:32N 41°06' W 072°22'0 0.0
2015-Aug-25 18:33N 41°06' W 072°22'0 0.0
2015-Aug-25 17:31N 41°06' W 072°22'0 0.0
2015-Aug-25 16:31N 41°06' W 072°22'0 0.0
2015-Aug-25 15:32N 41°06' W 072°22'0 0.0
2015-Aug-25 14:33N 41°06' W 072°22'0 0.0
2015-Aug-25 13:33N 41°06' W 072°22'0 0.0
2015-Aug-25 12:31N 41°06' W 072°22'0 0.0
2015-Aug-25 11:29N 41°06' W 072°22'0 0.0
2015-Aug-25 10:32N 41°06' W 072°22'0 0.0
2015-Aug-25 09:33N 41°06' W 072°22'0 0.0
2015-Aug-25 08:31N 41°06' W 072°22'0 0.0
2015-Aug-25 07:31N 41°06' W 072°22'0 0.0
2015-Aug-25 06:32N 41°06' W 072°22'0 0.0
2015-Aug-25 05:33N 41°06' W 072°22'0 0.0
2015-Aug-25 04:33N 41°06' W 072°22'0 0.0
2015-Aug-25 03:28N 41°06' W 072°22'0 0.0
2015-Aug-25 02:32N 41°06' W 072°22'0 0.0
2015-Aug-25 01:32N 41°06' W 072°22'0 0.0
2015-Aug-25 00:33N 41°06' W 072°22'0 0.0
2015-Aug-24 23:31N 41°06' W 072°22'0 0.0
2015-Aug-24 22:31N 41°06' W 072°22'0 0.0
2015-Aug-24 21:32N 41°06' W 072°22'0 0.0
2015-Aug-24 20:34N 41°06' W 072°22'0 0.0
2015-Aug-24 19:34N 41°06' W 072°22'0 0.0
2015-Aug-24 18:34N 41°06' W 072°22'0 0.0
2015-Aug-24 17:34N 41°06' W 072°22'0 0.0
2015-Aug-24 16:34N 41°06' W 072°22'7 1.6
2015-Aug-24 12:31N 41°00' W 072°17'0 0.0
2015-Aug-24 11:26N 41°00' W 072°17'0 0.0
2015-Aug-24 10:30N 41°00' W 072°17'0 0.0
2015-Aug-24 09:33N 41°00' W 072°17'0 0.0
2015-Aug-24 08:31N 41°00' W 072°17'0 0.0
2015-Aug-24 07:32N 41°00' W 072°17'0 0.0
2015-Aug-24 06:32N 41°00' W 072°17'0 0.0
2015-Aug-24 05:33N 41°00' W 072°17'0 0.0
2015-Aug-24 04:28N 41°00' W 072°17'0 0.0
2015-Aug-24 03:32N 41°00' W 072°17'0 0.0
2015-Aug-24 02:32N 41°00' W 072°17'0 0.0
2015-Aug-24 01:33N 41°00' W 072°17'0 0.0
2015-Aug-24 00:33N 41°00' W 072°17'0 0.0
2015-Aug-23 23:31N 41°00' W 072°17'0 0.0
2015-Aug-23 22:32N 41°00' W 072°17'0 0.0
2015-Aug-23 21:33N 41°00' W 072°17'0 0.0
2015-Aug-23 20:33N 41°00' W 072°17'0 0.0
2015-Aug-23 19:31N 41°00' W 072°17'0 0.0
2015-Aug-23 18:32N 41°00' W 072°17'0 0.0
2015-Aug-23 17:32N 41°00' W 072°17'0 0.0
2015-Aug-23 16:30N 41°00' W 072°17'0 0.0
2015-Aug-23 15:31N 41°00' W 072°17'0 0.0
2015-Aug-23 14:31N 41°00' W 072°17'0 0.0
2015-Aug-23 13:32N 41°00' W 072°17'0 0.0
2015-Aug-23 12:33N 41°00' W 072°17'0 0.0
2015-Aug-23 11:33N 41°00' W 072°17'0 0.0
2015-Aug-23 10:31N 41°00' W 072°17'0 0.0
2015-Aug-23 09:29N 41°00' W 072°17'0 0.0
2015-Aug-23 08:32N 41°00' W 072°17'0 0.0
2015-Aug-23 07:33N 41°00' W 072°17'0 0.0
2015-Aug-23 06:31N 41°00' W 072°17'0 0.0
2015-Aug-23 05:31N 41°00' W 072°17'0 0.0
2015-Aug-23 04:29N 41°00' W 072°17'0 0.0
2015-Aug-23 03:33N 41°00' W 072°17'0 0.0
2015-Aug-23 02:33N 41°00' W 072°17'0 0.0
2015-Aug-23 01:31N 41°00' W 072°17'0 0.0
2015-Aug-23 00:32N 41°00' W 072°17'0 0.0
2015-Aug-22 23:32N 41°00' W 072°17'0 0.0
2015-Aug-22 22:33N 41°00' W 072°17'0 0.0
2015-Aug-22 21:31N 41°00' W 072°17'0 0.0
2015-Aug-22 20:31N 41°00' W 072°17'0 0.0
2015-Aug-22 19:32N 41°00' W 072°17'0 0.0
2015-Aug-22 18:33N 41°00' W 072°17'3 3.2
2015-Aug-22 17:33N 41°02' W 072°21'4 4.2
2015-Aug-22 16:33N 41°06' W 072°22'0 0.0
2015-Aug-22 15:33N 41°06' W 072°22'0 0.0
2015-Aug-22 14:31N 41°06' W 072°22'0 0.0
2015-Aug-22 13:32N 41°06' W 072°22'0 0.0
2015-Aug-22 12:29N 41°06' W 072°22'  
Track history (hours):
 
Tides and Currents Weather Stations Pressure Air Temp Water Temp Dewpoint Dewpoint Depression Visibility Wind Speed Wind Dir Waves Ship Positions

Medallion

Last reported at 2015-Sep-01 11:34 UTC. Time now 2015-Sep-01 12:15 UTC.
Position N 41°06' W 072°22'.

Length 20 m; draft 7 m.

Type: Pleasure craft. MMSI: 538070246.

Date/timePositionNaut miles runAvg speedWind from/ knotsBaromVisibWave heightAir tempDewpointWater temp
2015-Sep-01 11:34N 41°06' W 072°22'0 0.0
2015-Sep-01 10:34N 41°06' W 072°22'0 0.0
2015-Sep-01 09:34N 41°06' W 072°22'0 0.0
2015-Sep-01 08:34N 41°06' W 072°22'0 0.0
2015-Sep-01 07:34N 41°06' W 072°22'0 0.0
2015-Sep-01 06:34N 41°06' W 072°22'0 0.0
2015-Sep-01 05:34N 41°06' W 072°22'0 0.0
2015-Sep-01 04:34N 41°06' W 072°22'0 0.0
2015-Sep-01 03:34N 41°06' W 072°22'0 0.0
2015-Sep-01 02:34N 41°06' W 072°22'0 0.0
2015-Sep-01 01:34N 41°06' W 072°22'0 0.0
2015-Sep-01 00:34N 41°06' W 072°22'0 0.0
2015-Aug-31 23:34N 41°06' W 072°22'0 0.0
2015-Aug-31 22:34N 41°06' W 072°22'0 0.0
2015-Aug-31 21:34N 41°06' W 072°22'0 0.0
2015-Aug-31 20:34N 41°06' W 072°22'0 0.0
2015-Aug-31 19:34N 41°06' W 072°22'0 0.0
2015-Aug-31 18:34N 41°06' W 072°22'0 0.0
2015-Aug-31 17:34N 41°06' W 072°22'0 0.0
2015-Aug-31 16:34N 41°06' W 072°22'0 0.0
2015-Aug-31 15:34N 41°06' W 072°22'0 0.0
2015-Aug-31 14:34N 41°06' W 072°22'0 0.0
2015-Aug-31 13:34N 41°06' W 072°22'0 0.0
2015-Aug-31 12:34N 41°06' W 072°22'0 0.0
2015-Aug-31 10:33N 41°06' W 072°22'0 0.0
2015-Aug-31 09:32N 41°06' W 072°22'0 0.0
2015-Aug-31 08:34N 41°06' W 072°22'0 0.0
2015-Aug-31 07:33N 41°06' W 072°22'0 0.0
2015-Aug-31 06:33N 41°06' W 072°22'0 0.0
2015-Aug-31 05:33N 41°06' W 072°22'0 0.0
2015-Aug-31 04:31N 41°06' W 072°22'0 0.0
2015-Aug-31 03:34N 41°06' W 072°22'0 0.0
2015-Aug-31 02:33N 41°06' W 072°22'0 0.0
2015-Aug-31 00:32N 41°06' W 072°22'7 0.2
2015-Aug-29 10:21N 41°00' W 072°17'0 0.0
2015-Aug-29 09:33N 41°00' W 072°17'0 0.0
2015-Aug-29 08:28N 41°00' W 072°17'0 0.0
2015-Aug-28 16:27N 41°00' W 072°17'0 0.0
2015-Aug-28 15:30N 41°00' W 072°17'2 1.6
2015-Aug-28 14:34N 41°02' W 072°18'5 4.6
2015-Aug-28 13:33N 41°06' W 072°21'1 0.5
2015-Aug-28 12:31N 41°06' W 072°22'0 0.0
2015-Aug-28 11:31N 41°06' W 072°22'0 0.0
2015-Aug-28 10:29N 41°06' W 072°22'0 0.0
2015-Aug-28 09:33N 41°06' W 072°22'0 0.0
2015-Aug-28 08:33N 41°06' W 072°22'0 0.0
2015-Aug-28 07:31N 41°06' W 072°22'0 0.0
2015-Aug-28 06:32N 41°06' W 072°22'0 0.0
2015-Aug-28 05:32N 41°06' W 072°22'0 0.0
2015-Aug-28 04:33N 41°06' W 072°22'0 0.0
2015-Aug-28 03:31N 41°06' W 072°22'0 0.0
2015-Aug-28 02:31N 41°06' W 072°22'0 0.0
2015-Aug-28 01:26N 41°06' W 072°22'0 0.0
2015-Aug-28 00:33N 41°06' W 072°22'0 0.0
2015-Aug-27 23:33N 41°06' W 072°22'0 0.0
2015-Aug-27 22:31N 41°06' W 072°22'0 0.0
2015-Aug-27 21:32N 41°06' W 072°22'0 0.0
2015-Aug-27 20:32N 41°06' W 072°22'0 0.0
2015-Aug-27 19:33N 41°06' W 072°22'0 0.0
2015-Aug-27 18:31N 41°06' W 072°22'0 0.0
2015-Aug-27 17:31N 41°06' W 072°22'0 0.0
2015-Aug-27 16:32N 41°06' W 072°22'0 0.0
2015-Aug-27 15:33N 41°06' W 072°22'0 0.0
2015-Aug-27 14:30N 41°06' W 072°22'0 0.0
2015-Aug-27 13:31N 41°06' W 072°22'0 0.0
2015-Aug-27 12:32N 41°06' W 072°22'0 0.0
2015-Aug-27 11:32N 41°06' W 072°22'0 0.0
2015-Aug-27 10:33N 41°06' W 072°22'0 0.0
2015-Aug-27 09:31N 41°06' W 072°22'0 0.0
2015-Aug-27 08:31N 41°06' W 072°22'0 0.0
2015-Aug-27 07:32N 41°06' W 072°22'0 0.0
2015-Aug-27 06:33N 41°06' W 072°22'0 0.0
2015-Aug-27 05:33N 41°06' W 072°22'0 0.0
2015-Aug-27 04:31N 41°06' W 072°22'0 0.0
2015-Aug-27 03:32N 41°06' W 072°22'0 0.0
2015-Aug-27 02:33N 41°06' W 072°22'0 0.0
2015-Aug-27 01:33N 41°06' W 072°22'0 0.0
2015-Aug-27 00:31N 41°06' W 072°22'0 0.0
2015-Aug-26 23:32N 41°06' W 072°22'0 0.0
2015-Aug-26 22:32N 41°06' W 072°22'0 0.0
2015-Aug-26 21:33N 41°06' W 072°22'0 0.0
2015-Aug-26 20:31N 41°06' W 072°22'0 0.0
2015-Aug-26 19:31N 41°06' W 072°22'0 0.0
2015-Aug-26 18:32N 41°06' W 072°22'0 0.0
2015-Aug-26 17:33N 41°06' W 072°22'0 0.0
2015-Aug-26 16:33N 41°06' W 072°22'0 0.0
2015-Aug-26 15:31N 41°06' W 072°22'0 0.0
2015-Aug-26 14:32N 41°06' W 072°22'0 0.0
2015-Aug-26 13:32N 41°06' W 072°22'0 0.0
2015-Aug-26 12:33N 41°06' W 072°22'0 0.0
2015-Aug-26 11:31N 41°06' W 072°22'0 0.0
2015-Aug-26 10:31N 41°06' W 072°22'0 0.0
2015-Aug-26 09:32N 41°06' W 072°22'0 0.0
2015-Aug-26 08:33N 41°06' W 072°22'0 0.0
2015-Aug-26 07:33N 41°06' W 072°22'0 0.0
2015-Aug-26 06:31N 41°06' W 072°22'0 0.0
2015-Aug-26 05:32N 41°06' W 072°22'0 0.0
2015-Aug-26 04:32N 41°06' W 072°22'0 0.0
2015-Aug-26 03:33N 41°06' W 072°22'0 0.0
2015-Aug-26 02:31N 41°06' W 072°22'0 0.0
2015-Aug-26 01:31N 41°06' W 072°22'0 0.0
2015-Aug-26 00:32N 41°06' W 072°22'0 0.0
2015-Aug-25 23:33N 41°06' W 072°22'0 0.0
2015-Aug-25 22:33N 41°06' W 072°22'0 0.0
2015-Aug-25 21:31N 41°06' W 072°22'0 0.0
2015-Aug-25 20:32N 41°06' W 072°22'0 0.0
2015-Aug-25 19:32N 41°06' W 072°22'0 0.0
2015-Aug-25 18:33N 41°06' W 072°22'0 0.0
2015-Aug-25 17:31N 41°06' W 072°22'0 0.0
2015-Aug-25 16:31N 41°06' W 072°22'0 0.0
2015-Aug-25 15:32N 41°06' W 072°22'0 0.0
2015-Aug-25 14:33N 41°06' W 072°22'0 0.0
2015-Aug-25 13:33N 41°06' W 072°22'0 0.0
2015-Aug-25 12:31N 41°06' W 072°22'0 0.0
2015-Aug-25 11:29N 41°06' W 072°22'0 0.0
2015-Aug-25 10:32N 41°06' W 072°22'0 0.0
2015-Aug-25 09:33N 41°06' W 072°22'0 0.0
2015-Aug-25 08:31N 41°06' W 072°22'0 0.0
2015-Aug-25 07:31N 41°06' W 072°22'0 0.0
2015-Aug-25 06:32N 41°06' W 072°22'0 0.0
2015-Aug-25 05:33N 41°06' W 072°22'0 0.0
2015-Aug-25 04:33N 41°06' W 072°22'0 0.0
2015-Aug-25 03:28N 41°06' W 072°22'0 0.0
2015-Aug-25 02:32N 41°06' W 072°22'0 0.0
2015-Aug-25 01:32N 41°06' W 072°22'0 0.0
2015-Aug-25 00:33N 41°06' W 072°22'0 0.0
2015-Aug-24 23:31N 41°06' W 072°22'0 0.0
2015-Aug-24 22:31N 41°06' W 072°22'0 0.0
2015-Aug-24 21:32N 41°06' W 072°22'0 0.0
2015-Aug-24 20:34N 41°06' W 072°22'0 0.0
2015-Aug-24 19:34N 41°06' W 072°22'0 0.0
2015-Aug-24 18:34N 41°06' W 072°22'0 0.0
2015-Aug-24 17:34N 41°06' W 072°22'0 0.0
2015-Aug-24 16:34N 41°06' W 072°22'7 1.6
2015-Aug-24 12:31N 41°00' W 072°17'0 0.0
2015-Aug-24 11:26N 41°00' W 072°17'0 0.0
2015-Aug-24 10:30N 41°00' W 072°17'0 0.0
2015-Aug-24 09:33N 41°00' W 072°17'0 0.0
2015-Aug-24 08:31N 41°00' W 072°17'0 0.0
2015-Aug-24 07:32N 41°00' W 072°17'0 0.0
2015-Aug-24 06:32N 41°00' W 072°17'0 0.0
2015-Aug-24 05:33N 41°00' W 072°17'0 0.0
2015-Aug-24 04:28N 41°00' W 072°17'0 0.0
2015-Aug-24 03:32N 41°00' W 072°17'0 0.0
2015-Aug-24 02:32N 41°00' W 072°17'0 0.0
2015-Aug-24 01:33N 41°00' W 072°17'0 0.0
2015-Aug-24 00:33N 41°00' W 072°17'0 0.0
2015-Aug-23 23:31N 41°00' W 072°17'0 0.0
2015-Aug-23 22:32N 41°00' W 072°17'0 0.0
2015-Aug-23 21:33N 41°00' W 072°17'0 0.0
2015-Aug-23 20:33N 41°00' W 072°17'0 0.0
2015-Aug-23 19:31N 41°00' W 072°17'0 0.0
2015-Aug-23 18:32N 41°00' W 072°17'0 0.0
2015-Aug-23 17:32N 41°00' W 072°17'0 0.0
2015-Aug-23 16:30N 41°00' W 072°17'0 0.0
2015-Aug-23 15:31N 41°00' W 072°17'0 0.0
2015-Aug-23 14:31N 41°00' W 072°17'0 0.0
2015-Aug-23 13:32N 41°00' W 072°17'0 0.0
2015-Aug-23 12:33N 41°00' W 072°17'0 0.0
2015-Aug-23 11:33N 41°00' W 072°17'0 0.0
2015-Aug-23 10:31N 41°00' W 072°17'0 0.0
2015-Aug-23 09:29N 41°00' W 072°17'0 0.0
2015-Aug-23 08:32N 41°00' W 072°17'0 0.0
2015-Aug-23 07:33N 41°00' W 072°17'0 0.0
2015-Aug-23 06:31N 41°00' W 072°17'0 0.0
2015-Aug-23 05:31N 41°00' W 072°17'0 0.0
2015-Aug-23 04:29N 41°00' W 072°17'0 0.0
2015-Aug-23 03:33N 41°00' W 072°17'0 0.0
2015-Aug-23 02:33N 41°00' W 072°17'0 0.0
2015-Aug-23 01:31N 41°00' W 072°17'0 0.0
2015-Aug-23 00:32N 41°00' W 072°17'0 0.0
2015-Aug-22 23:32N 41°00' W 072°17'0 0.0
2015-Aug-22 22:33N 41°00' W 072°17'0 0.0
2015-Aug-22 21:31N 41°00' W 072°17'0 0.0
2015-Aug-22 20:31N 41°00' W 072°17'0 0.0
2015-Aug-22 19:32N 41°00' W 072°17'0 0.0
2015-Aug-22 18:33N 41°00' W 072°17'3 3.2
2015-Aug-22 17:33N 41°02' W 072°21'4 4.2
2015-Aug-22 16:33N 41°06' W 072°22'0 0.0
2015-Aug-22 15:33N 41°06' W 072°22'0 0.0
2015-Aug-22 14:31N 41°06' W 072°22'0 0.0
2015-Aug-22 13:32N 41°06' W 072°22'0 0.0
2015-Aug-22 12:29N 41°06' W 072°22'  

Dump ship's entire track history